createdAt,value
2018-08-20T00:00:28.803Z,21.14
2018-08-20T00:00:59.967Z,21.10
2018-08-20T00:01:31.079Z,21.09
2018-08-20T00:02:02.284Z,21.10
2018-08-20T00:02:33.472Z,21.12
2018-08-20T00:03:04.576Z,21.11
2018-08-20T00:03:35.740Z,21.12
2018-08-20T00:04:06.858Z,21.12
2018-08-20T00:04:38.093Z,21.11
2018-08-20T00:05:09.333Z,21.10
2018-08-20T00:05:40.526Z,21.12
2018-08-20T00:06:11.645Z,21.13
2018-08-20T00:06:42.851Z,21.12
2018-08-20T00:07:14.029Z,21.11
2018-08-20T00:07:45.190Z,21.10
2018-08-20T00:08:16.341Z,21.09
2018-08-20T00:08:47.508Z,21.07
2018-08-20T00:09:18.627Z,21.06
2018-08-20T00:09:49.740Z,21.05
2018-08-20T00:10:20.903Z,21.05
2018-08-20T00:10:52.088Z,21.03
2018-08-20T00:11:23.262Z,21.00
2018-08-20T00:11:54.474Z,20.96
2018-08-20T00:12:25.591Z,20.94
2018-08-20T00:12:56.752Z,20.91
2018-08-20T00:13:27.924Z,20.89
2018-08-20T00:13:59.096Z,20.90
2018-08-20T00:14:30.264Z,20.86
2018-08-20T00:15:01.423Z,20.86
2018-08-20T00:15:32.599Z,20.88
2018-08-20T00:16:03.765Z,20.88
2018-08-20T00:16:34.893Z,20.91
2018-08-20T00:17:06.060Z,20.91
2018-08-20T00:17:37.224Z,20.91
2018-08-20T00:18:08.440Z,20.91
2018-08-20T00:18:39.634Z,20.89
2018-08-20T00:19:10.805Z,20.71
2018-08-20T00:19:41.920Z,20.86
2018-08-20T00:20:13.150Z,20.86
2018-08-20T00:20:44.263Z,20.85
2018-08-20T00:21:15.444Z,20.87
2018-08-20T00:21:46.612Z,20.86
2018-08-20T00:22:17.776Z,20.85
2018-08-20T00:22:48.889Z,20.85
2018-08-20T00:23:19.999Z,20.85
2018-08-20T00:23:51.104Z,20.84
2018-08-20T00:24:22.276Z,20.85
2018-08-20T00:24:53.454Z,20.86
2018-08-20T00:25:24.574Z,20.84
2018-08-20T00:25:55.736Z,20.83
2018-08-20T00:26:26.858Z,20.83
2018-08-20T00:26:57.971Z,20.84
2018-08-20T00:27:29.147Z,20.84
2018-08-20T00:28:00.329Z,20.86
2018-08-20T00:28:31.443Z,20.88
2018-08-20T00:29:02.553Z,20.89
2018-08-20T00:29:33.726Z,20.90
2018-08-20T00:30:04.906Z,20.90
2018-08-20T00:30:36.012Z,20.90
2018-08-20T00:31:07.120Z,20.89
2018-08-20T00:31:38.282Z,20.90
2018-08-20T00:32:09.452Z,20.90
2018-08-20T00:32:40.662Z,20.90
2018-08-20T00:33:11.835Z,20.91
2018-08-20T00:33:42.958Z,20.91
2018-08-20T00:34:14.181Z,20.90
2018-08-20T00:34:45.416Z,20.92
2018-08-20T00:35:16.539Z,20.95
2018-08-20T00:35:47.687Z,20.96
2018-08-20T00:36:18.912Z,20.96
2018-08-20T00:36:50.031Z,20.97
2018-08-20T00:37:21.196Z,20.98
2018-08-20T00:37:52.352Z,20.99
2018-08-20T00:38:23.581Z,20.99
2018-08-20T00:38:54.756Z,21.00
2018-08-20T00:39:25.938Z,21.01
2018-08-20T00:39:57.102Z,21.01
2018-08-20T00:40:28.851Z,21.00
2018-08-20T00:40:59.967Z,21.01
2018-08-20T00:41:31.111Z,21.06
2018-08-20T00:42:02.283Z,21.07
2018-08-20T00:42:33.455Z,21.09
2018-08-20T00:43:04.634Z,21.08
2018-08-20T00:43:35.791Z,21.08
2018-08-20T00:44:06.900Z,21.06
2018-08-20T00:44:38.117Z,21.05
2018-08-20T00:45:09.284Z,21.07
2018-08-20T00:45:40.452Z,21.09
2018-08-20T00:46:11.632Z,21.11
2018-08-20T00:46:42.776Z,21.12
2018-08-20T00:47:13.927Z,21.13
2018-08-20T00:47:45.113Z,21.14
2018-08-20T00:48:16.274Z,21.15
2018-08-20T00:48:47.390Z,21.12
2018-08-20T00:49:18.564Z,21.12
2018-08-20T00:49:49.786Z,21.12
2018-08-20T00:50:20.919Z,21.12
2018-08-20T00:50:52.028Z,21.12
2018-08-20T00:51:23.146Z,21.08
2018-08-20T00:51:54.357Z,21.10
2018-08-20T00:52:25.591Z,21.12
2018-08-20T00:52:56.786Z,21.15
2018-08-20T00:53:28.014Z,21.14
2018-08-20T00:53:59.189Z,21.15
2018-08-20T00:54:30.312Z,21.17
2018-08-20T00:55:01.497Z,21.15
2018-08-20T00:55:32.621Z,21.15
2018-08-20T00:56:03.780Z,21.15
2018-08-20T00:56:34.954Z,21.15
2018-08-20T00:57:06.188Z,21.13
2018-08-20T00:57:37.415Z,21.13
2018-08-20T00:58:08.563Z,21.16
2018-08-20T00:58:39.685Z,21.18
2018-08-20T00:59:10.839Z,21.22
2018-08-20T00:59:42.017Z,21.22
2018-08-20T01:00:13.217Z,21.22
2018-08-20T01:00:44.392Z,21.22
2018-08-20T01:01:15.515Z,21.20
2018-08-20T01:01:46.687Z,21.19
2018-08-20T01:02:17.849Z,21.19
2018-08-20T01:02:49.062Z,21.17
2018-08-20T01:03:20.236Z,21.15
2018-08-20T01:03:51.351Z,21.14
2018-08-20T01:04:22.469Z,21.13
2018-08-20T01:04:53.578Z,21.10
2018-08-20T01:05:24.749Z,21.03
2018-08-20T01:05:55.867Z,21.00
2018-08-20T01:06:27.091Z,21.00
2018-08-20T01:06:58.298Z,21.00
2018-08-20T01:07:29.465Z,21.01
2018-08-20T01:08:00.713Z,20.99
2018-08-20T01:08:31.892Z,21.00
2018-08-20T01:09:03.008Z,20.99
2018-08-20T01:09:34.133Z,21.02
2018-08-20T01:10:05.365Z,21.04
2018-08-20T01:10:36.598Z,21.06
2018-08-20T01:11:07.726Z,21.05
2018-08-20T01:11:38.914Z,21.08
2018-08-20T01:12:10.026Z,21.10
2018-08-20T01:12:41.235Z,21.12
2018-08-20T01:13:12.356Z,21.12
2018-08-20T01:13:43.464Z,21.13
2018-08-20T01:14:14.634Z,21.12
2018-08-20T01:14:45.747Z,21.12
2018-08-20T01:15:16.860Z,21.09
2018-08-20T01:15:47.977Z,21.06
2018-08-20T01:16:19.095Z,21.03
2018-08-20T01:16:50.199Z,21.00
2018-08-20T01:17:21.307Z,20.99
2018-08-20T01:17:52.452Z,20.95
2018-08-20T01:18:23.624Z,20.92
2018-08-20T01:18:54.790Z,20.92
2018-08-20T01:19:25.912Z,20.89
2018-08-20T01:19:57.019Z,20.89
2018-08-20T01:20:28.184Z,20.86
2018-08-20T01:20:59.296Z,20.86
2018-08-20T01:21:30.402Z,20.84
2018-08-20T01:22:01.515Z,20.83
2018-08-20T01:22:32.676Z,20.81
2018-08-20T01:23:03.836Z,20.75
2018-08-20T01:23:35.009Z,20.72
2018-08-20T01:24:06.184Z,20.75
2018-08-20T01:24:37.300Z,20.75
2018-08-20T01:25:08.517Z,20.75
2018-08-20T01:25:39.650Z,20.75
2018-08-20T01:26:10.835Z,20.75
2018-08-20T01:26:42.017Z,20.75
2018-08-20T01:27:13.196Z,20.76
2018-08-20T01:27:44.308Z,20.76
2018-08-20T01:28:15.480Z,20.76
2018-08-20T01:28:46.608Z,20.80
2018-08-20T01:29:17.861Z,20.82
2018-08-20T01:29:49.040Z,20.84
2018-08-20T01:30:20.155Z,20.85
2018-08-20T01:30:51.385Z,20.84
2018-08-20T01:31:22.561Z,20.84
2018-08-20T01:31:53.688Z,20.83
2018-08-20T01:32:24.855Z,20.83
2018-08-20T01:32:56.072Z,20.81
2018-08-20T01:33:27.254Z,20.80
2018-08-20T01:33:58.371Z,20.78
2018-08-20T01:34:29.541Z,20.76
2018-08-20T01:35:00.771Z,20.75
2018-08-20T01:35:31.889Z,20.72
2018-08-20T01:36:03.103Z,20.71
2018-08-20T01:36:34.220Z,20.71
2018-08-20T01:37:06.056Z,20.70
2018-08-20T01:37:37.175Z,20.71
2018-08-20T01:38:08.382Z,20.69
2018-08-20T01:38:39.613Z,20.66
2018-08-20T01:39:10.748Z,20.64
2018-08-20T01:39:41.859Z,20.61
2018-08-20T01:40:12.974Z,20.59
2018-08-20T01:40:44.144Z,20.57
2018-08-20T01:41:15.329Z,20.53
2018-08-20T01:41:46.513Z,20.53
2018-08-20T01:42:17.632Z,20.53
2018-08-20T01:42:48.753Z,20.53
2018-08-20T01:43:19.961Z,20.52
2018-08-20T01:43:51.132Z,20.52
2018-08-20T01:44:22.260Z,20.50
2018-08-20T01:44:53.391Z,20.44
2018-08-20T01:45:24.503Z,20.42
2018-08-20T01:45:55.677Z,20.41
2018-08-20T01:46:26.844Z,20.38
2018-08-20T01:46:57.967Z,20.39
2018-08-20T01:47:29.088Z,20.36
2018-08-20T01:48:00.249Z,20.36
2018-08-20T01:48:31.530Z,20.36
2018-08-20T01:49:02.660Z,20.38
2018-08-20T01:49:33.788Z,20.41
2018-08-20T01:50:04.957Z,20.42
2018-08-20T01:50:36.189Z,20.42
2018-08-20T01:51:07.368Z,20.41
2018-08-20T01:51:38.593Z,20.41
2018-08-20T01:52:09.806Z,20.40
2018-08-20T01:52:41.029Z,20.40
2018-08-20T01:53:12.268Z,20.42
2018-08-20T01:53:43.440Z,20.42
2018-08-20T01:54:14.567Z,20.45
2018-08-20T01:54:45.793Z,20.48
2018-08-20T01:55:16.915Z,20.50
2018-08-20T01:55:48.089Z,20.54
2018-08-20T01:56:19.313Z,20.56
2018-08-20T01:56:50.550Z,20.57
2018-08-20T01:57:21.753Z,20.53
2018-08-20T01:57:52.903Z,20.52
2018-08-20T01:58:24.064Z,20.50
2018-08-20T01:58:55.236Z,20.48
2018-08-20T01:59:26.412Z,20.47
2018-08-20T01:59:57.600Z,20.45
2018-08-20T02:00:28.771Z,20.44
2018-08-20T02:00:59.952Z,20.44
2018-08-20T02:01:31.069Z,20.40
2018-08-20T02:02:02.177Z,20.40
2018-08-20T02:02:33.340Z,20.40
2018-08-20T02:03:04.523Z,20.38
2018-08-20T02:03:35.705Z,20.36
2018-08-20T02:04:06.833Z,20.33
2018-08-20T02:04:38.019Z,20.32
2018-08-20T02:05:09.132Z,20.29
2018-08-20T02:05:40.285Z,20.26
2018-08-20T02:06:11.402Z,20.24
2018-08-20T02:06:42.524Z,20.24
2018-08-20T02:07:13.706Z,20.27
2018-08-20T02:07:44.932Z,20.28
2018-08-20T02:08:16.067Z,20.27
2018-08-20T02:08:47.179Z,20.26
2018-08-20T02:09:18.296Z,20.25
2018-08-20T02:09:49.476Z,20.26
2018-08-20T02:10:20.616Z,20.26
2018-08-20T02:10:51.803Z,20.27
2018-08-20T02:11:23.034Z,20.27
2018-08-20T02:11:54.151Z,20.29
2018-08-20T02:12:25.312Z,20.33
2018-08-20T02:12:56.436Z,20.35
2018-08-20T02:13:27.609Z,20.37
2018-08-20T02:13:58.776Z,20.41
2018-08-20T02:14:29.896Z,20.43
2018-08-20T02:15:01.081Z,20.44
2018-08-20T02:15:32.253Z,20.42
2018-08-20T02:16:03.421Z,20.40
2018-08-20T02:16:34.551Z,20.40
2018-08-20T02:17:05.721Z,20.38
2018-08-20T02:17:36.876Z,20.36
2018-08-20T02:18:08.044Z,20.36
2018-08-20T02:18:39.214Z,20.33
2018-08-20T02:19:10.386Z,20.34
2018-08-20T02:19:41.559Z,20.34
2018-08-20T02:20:12.728Z,20.34
2018-08-20T02:20:43.915Z,20.34
2018-08-20T02:21:15.136Z,20.34
2018-08-20T02:21:46.312Z,20.35
2018-08-20T02:22:17.467Z,20.33
2018-08-20T02:22:48.583Z,20.32
2018-08-20T02:23:19.803Z,20.32
2018-08-20T02:23:50.985Z,20.32
2018-08-20T02:24:22.167Z,20.33
2018-08-20T02:24:53.290Z,20.32
2018-08-20T02:25:24.466Z,20.35
2018-08-20T02:25:55.601Z,20.35
2018-08-20T02:26:26.707Z,20.38
2018-08-20T02:26:57.820Z,20.38
2018-08-20T02:27:28.986Z,20.39
2018-08-20T02:28:00.233Z,20.37
2018-08-20T02:28:31.387Z,20.33
2018-08-20T02:29:02.509Z,20.34
2018-08-20T02:29:33.684Z,20.36
2018-08-20T02:30:04.852Z,20.35
2018-08-20T02:30:35.980Z,20.37
2018-08-20T02:31:07.125Z,20.37
2018-08-20T02:31:38.286Z,20.38
2018-08-20T02:32:09.474Z,20.40
2018-08-20T02:32:40.694Z,20.32
2018-08-20T02:33:11.811Z,20.34
2018-08-20T02:33:43.036Z,20.31
2018-08-20T02:34:14.230Z,20.28
2018-08-20T02:34:45.464Z,20.25
2018-08-20T02:35:16.640Z,20.20
2018-08-20T02:35:47.752Z,20.17
2018-08-20T02:36:18.876Z,20.17
2018-08-20T02:36:50.007Z,20.17
2018-08-20T02:37:21.124Z,20.15
2018-08-20T02:37:52.352Z,20.15
2018-08-20T02:38:23.480Z,20.14
2018-08-20T02:38:54.661Z,20.13
2018-08-20T02:39:25.854Z,20.11
2018-08-20T02:39:57.022Z,20.09
2018-08-20T02:40:28.133Z,20.07
2018-08-20T02:40:59.397Z,20.04
2018-08-20T02:41:30.570Z,20.03
2018-08-20T02:42:01.700Z,19.99
2018-08-20T02:42:32.865Z,19.97
2018-08-20T02:43:04.076Z,19.96
2018-08-20T02:43:35.201Z,19.93
2018-08-20T02:44:06.381Z,19.90
2018-08-20T02:44:37.553Z,19.89
2018-08-20T02:45:08.775Z,19.91
2018-08-20T02:45:40.012Z,19.90
2018-08-20T02:46:11.137Z,19.90
2018-08-20T02:46:42.352Z,19.91
2018-08-20T02:47:13.480Z,19.92
2018-08-20T02:47:44.653Z,19.92
2018-08-20T02:48:15.832Z,19.92
2018-08-20T02:48:47.006Z,19.89
2018-08-20T02:49:18.127Z,19.86
2018-08-20T02:49:49.292Z,19.71
2018-08-20T02:50:20.475Z,19.86
2018-08-20T02:50:51.645Z,19.87
2018-08-20T02:51:22.832Z,19.85
2018-08-20T02:51:53.949Z,19.86
2018-08-20T02:52:25.122Z,19.86
2018-08-20T02:52:56.313Z,19.87
2018-08-20T02:53:28.032Z,19.86
2018-08-20T02:53:59.206Z,19.85
2018-08-20T02:54:30.425Z,19.84
2018-08-20T02:55:01.555Z,19.81
2018-08-20T02:55:32.732Z,19.66
2018-08-20T02:56:03.939Z,19.78
2018-08-20T02:56:35.067Z,19.74
2018-08-20T02:57:06.192Z,19.73
2018-08-20T02:57:37.323Z,19.68
2018-08-20T02:58:08.426Z,19.65
2018-08-20T02:58:39.536Z,19.65
2018-08-20T02:59:10.700Z,19.66
2018-08-20T02:59:41.836Z,19.65
2018-08-20T03:00:13.030Z,19.63
2018-08-20T03:00:44.220Z,19.58
2018-08-20T03:01:15.372Z,19.56
2018-08-20T03:01:46.549Z,19.55
2018-08-20T03:02:17.693Z,19.54
2018-08-20T03:02:48.811Z,19.54
2018-08-20T03:03:19.964Z,19.55
2018-08-20T03:03:51.083Z,19.56
2018-08-20T03:04:22.204Z,19.55
2018-08-20T03:04:53.322Z,19.55
2018-08-20T03:05:24.562Z,19.55
2018-08-20T03:05:55.797Z,19.55
2018-08-20T03:06:26.929Z,19.54
2018-08-20T03:06:58.108Z,19.53
2018-08-20T03:07:29.333Z,19.50
2018-08-20T03:08:00.523Z,19.49
2018-08-20T03:08:31.708Z,19.46
2018-08-20T03:09:02.831Z,19.45
2018-08-20T03:09:34.011Z,19.47
2018-08-20T03:10:05.188Z,19.48
2018-08-20T03:10:36.417Z,19.48
2018-08-20T03:11:07.559Z,19.45
2018-08-20T03:11:38.732Z,19.42
2018-08-20T03:12:09.848Z,19.41
2018-08-20T03:12:41.060Z,19.39
2018-08-20T03:13:12.260Z,19.38
2018-08-20T03:13:43.448Z,19.37
2018-08-20T03:14:14.662Z,19.36
2018-08-20T03:14:45.785Z,19.37
2018-08-20T03:15:16.899Z,19.34
2018-08-20T03:15:48.088Z,19.32
2018-08-20T03:16:19.244Z,19.30
2018-08-20T03:16:50.351Z,19.30
2018-08-20T03:17:21.638Z,19.28
2018-08-20T03:17:52.866Z,19.24
2018-08-20T03:18:24.004Z,19.24
2018-08-20T03:18:55.253Z,19.20
2018-08-20T03:19:26.427Z,19.21
2018-08-20T03:19:57.607Z,19.18
2018-08-20T03:20:28.769Z,19.18
2018-08-20T03:20:59.936Z,19.18
2018-08-20T03:21:31.117Z,19.17
2018-08-20T03:22:02.351Z,19.18
2018-08-20T03:22:33.529Z,19.20
2018-08-20T03:23:04.691Z,19.22
2018-08-20T03:23:35.879Z,19.22
2018-08-20T03:24:07.003Z,19.23
2018-08-20T03:24:38.174Z,19.23
2018-08-20T03:25:09.341Z,19.25
2018-08-20T03:25:40.521Z,19.26
2018-08-20T03:26:11.714Z,19.28
2018-08-20T03:26:42.832Z,19.28
2018-08-20T03:27:14.009Z,19.27
2018-08-20T03:27:45.140Z,19.28
2018-08-20T03:28:16.320Z,19.29
2018-08-20T03:28:47.441Z,19.30
2018-08-20T03:29:18.616Z,19.29
2018-08-20T03:29:49.837Z,19.29
2018-08-20T03:30:21.045Z,19.28
2018-08-20T03:30:52.205Z,19.26
2018-08-20T03:31:23.332Z,19.22
2018-08-20T03:31:54.461Z,19.23
2018-08-20T03:32:25.579Z,19.22
2018-08-20T03:32:56.704Z,19.22
2018-08-20T03:33:27.847Z,19.23
2018-08-20T03:33:58.985Z,19.21
2018-08-20T03:34:30.100Z,19.19
2018-08-20T03:35:01.222Z,19.17
2018-08-20T03:35:32.375Z,19.16
2018-08-20T03:36:03.487Z,19.15
2018-08-20T03:36:34.655Z,19.19
2018-08-20T03:37:05.783Z,19.21
2018-08-20T03:37:36.956Z,19.24
2018-08-20T03:38:08.077Z,19.25
2018-08-20T03:38:39.253Z,19.26
2018-08-20T03:39:10.489Z,19.32
2018-08-20T03:39:41.731Z,19.34
2018-08-20T03:40:12.920Z,19.35
2018-08-20T03:40:44.096Z,19.36
2018-08-20T03:41:15.215Z,19.40
2018-08-20T03:41:46.398Z,19.42
2018-08-20T03:42:17.527Z,19.45
2018-08-20T03:42:48.701Z,19.47
2018-08-20T03:43:19.815Z,19.49
2018-08-20T03:43:50.984Z,19.49
2018-08-20T03:44:22.156Z,19.48
2018-08-20T03:44:53.347Z,19.48
2018-08-20T03:45:24.583Z,19.46
2018-08-20T03:45:55.805Z,19.46
2018-08-20T03:46:26.974Z,19.47
2018-08-20T03:46:58.092Z,19.49
2018-08-20T03:47:29.276Z,19.51
2018-08-20T03:48:00.408Z,19.54
2018-08-20T03:48:31.592Z,19.55
2018-08-20T03:49:02.760Z,19.59
2018-08-20T03:49:33.957Z,19.63
2018-08-20T03:50:05.189Z,19.62
2018-08-20T03:50:36.319Z,19.63
2018-08-20T03:51:07.444Z,19.64
2018-08-20T03:51:38.591Z,19.67
2018-08-20T03:52:09.715Z,19.68
2018-08-20T03:52:40.887Z,19.72
2018-08-20T03:53:12.003Z,19.73
2018-08-20T03:53:43.111Z,19.75
2018-08-20T03:54:14.224Z,19.75
2018-08-20T03:54:45.344Z,19.73
2018-08-20T03:55:16.464Z,19.69
2018-08-20T03:55:47.582Z,19.68
2018-08-20T03:56:18.757Z,19.67
2018-08-20T03:56:49.933Z,19.64
2018-08-20T03:57:21.064Z,19.63
2018-08-20T03:57:52.232Z,19.64
2018-08-20T03:58:23.405Z,19.64
2018-08-20T03:58:54.632Z,19.66
2018-08-20T03:59:25.774Z,19.66
2018-08-20T03:59:56.972Z,19.67
2018-08-20T04:00:28.156Z,19.67
2018-08-20T04:00:59.290Z,19.67
2018-08-20T04:01:30.428Z,19.66
2018-08-20T04:02:01.543Z,19.62
2018-08-20T04:02:32.760Z,19.61
2018-08-20T04:03:04.049Z,19.59
2018-08-20T04:03:35.233Z,19.56
2018-08-20T04:04:06.351Z,19.54
2018-08-20T04:04:37.617Z,19.52
2018-08-20T04:05:08.888Z,19.52
2018-08-20T04:05:39.973Z,19.53
2018-08-20T04:06:11.104Z,19.54
2018-08-20T04:06:42.223Z,19.56
2018-08-20T04:07:13.474Z,19.57
2018-08-20T04:07:44.665Z,19.60
2018-08-20T04:08:15.873Z,19.63
2018-08-20T04:08:47.007Z,19.68
2018-08-20T04:09:18.194Z,19.72
2018-08-20T04:09:49.374Z,19.77
2018-08-20T04:10:20.568Z,19.83
2018-08-20T04:10:51.719Z,19.89
2018-08-20T04:11:22.883Z,19.93
2018-08-20T04:11:54.055Z,19.99
2018-08-20T04:12:25.305Z,20.03
2018-08-20T04:12:56.449Z,20.08
2018-08-20T04:13:27.581Z,20.15
2018-08-20T04:13:58.759Z,20.20
2018-08-20T04:14:29.942Z,20.30
2018-08-20T04:15:01.473Z,20.42
2018-08-20T04:15:32.657Z,20.54
2018-08-20T04:16:04.777Z,20.67
2018-08-20T04:16:36.025Z,20.80
2018-08-20T04:17:07.236Z,20.93
2018-08-20T04:17:38.409Z,21.05
2018-08-20T04:18:09.578Z,21.10
2018-08-20T04:18:40.692Z,21.17
2018-08-20T04:19:11.888Z,21.21
2018-08-20T04:19:43.007Z,21.29
2018-08-20T04:20:14.167Z,21.43
2018-08-20T04:20:45.407Z,21.58
2018-08-20T04:21:16.529Z,21.70
2018-08-20T04:21:47.643Z,21.80
2018-08-20T04:22:18.912Z,21.88
2018-08-20T04:22:50.150Z,22.01
2018-08-20T04:23:21.321Z,22.10
2018-08-20T04:23:52.508Z,22.18
2018-08-20T04:24:23.617Z,22.34
2018-08-20T04:24:54.731Z,22.41
2018-08-20T04:25:25.846Z,22.58
2018-08-20T04:25:56.967Z,22.67
2018-08-20T04:26:28.084Z,22.76
2018-08-20T04:26:59.265Z,22.85
2018-08-20T04:27:30.483Z,22.96
2018-08-20T04:28:01.647Z,23.03
2018-08-20T04:28:32.767Z,23.14
2018-08-20T04:29:03.935Z,23.22
2018-08-20T04:29:35.052Z,23.34
2018-08-20T04:30:06.209Z,23.46
2018-08-20T04:30:37.370Z,23.60
2018-08-20T04:31:08.521Z,23.72
2018-08-20T04:31:39.789Z,23.84
2018-08-20T04:32:10.972Z,23.91
2018-08-20T04:32:42.192Z,23.98
2018-08-20T04:33:13.360Z,24.06
2018-08-20T04:33:44.646Z,24.18
2018-08-20T04:34:15.873Z,24.24
2018-08-20T04:34:47.001Z,24.28
2018-08-20T04:35:18.167Z,24.26
2018-08-20T04:35:49.413Z,24.21
2018-08-20T04:36:20.572Z,24.29
2018-08-20T04:36:51.730Z,24.36
2018-08-20T04:37:22.878Z,24.44
2018-08-20T04:37:53.993Z,24.51
2018-08-20T04:38:25.114Z,24.52
2018-08-20T04:38:56.417Z,24.50
2018-08-20T04:39:27.539Z,24.51
2018-08-20T04:39:58.655Z,24.58
2018-08-20T04:40:29.775Z,24.66
2018-08-20T04:41:00.960Z,24.76
2018-08-20T04:41:32.092Z,24.78
2018-08-20T04:42:03.246Z,24.79
2018-08-20T04:42:34.425Z,24.89
2018-08-20T04:43:05.631Z,24.99
2018-08-20T04:43:36.782Z,25.09
2018-08-20T04:44:08.001Z,25.25
2018-08-20T04:44:39.128Z,25.32
2018-08-20T04:45:10.293Z,25.42
2018-08-20T04:45:41.481Z,25.46
2018-08-20T04:46:12.600Z,25.51
2018-08-20T04:46:43.776Z,25.61
2018-08-20T04:47:14.908Z,25.73
2018-08-20T04:47:46.032Z,25.88
2018-08-20T04:48:17.161Z,25.99
2018-08-20T04:48:48.326Z,25.97
2018-08-20T04:49:19.544Z,25.89
2018-08-20T04:49:50.753Z,25.71
2018-08-20T04:50:22.074Z,25.61
2018-08-20T04:50:53.101Z,25.50
2018-08-20T04:51:24.327Z,25.45
2018-08-20T04:51:55.427Z,25.43
2018-08-20T04:52:26.533Z,25.34
2018-08-20T04:52:57.663Z,25.38
2018-08-20T04:53:28.781Z,25.45
2018-08-20T04:53:59.960Z,25.54
2018-08-20T04:54:31.131Z,25.60
2018-08-20T04:55:02.353Z,25.60
2018-08-20T04:55:33.538Z,25.58
2018-08-20T04:56:04.752Z,25.65
2018-08-20T04:56:35.909Z,25.71
2018-08-20T04:57:07.024Z,25.72
2018-08-20T04:57:38.141Z,25.74
2018-08-20T04:58:09.264Z,25.74
2018-08-20T04:58:40.448Z,25.75
2018-08-20T04:59:11.642Z,25.72
2018-08-20T04:59:42.835Z,25.84
2018-08-20T05:00:14.067Z,25.86
2018-08-20T05:00:45.318Z,25.91
2018-08-20T05:01:16.543Z,26.04
2018-08-20T05:01:47.725Z,26.09
2018-08-20T05:02:18.903Z,26.13
2018-08-20T05:02:50.026Z,26.25
2018-08-20T05:03:21.197Z,26.39
2018-08-20T05:03:52.443Z,26.56
2018-08-20T05:04:23.576Z,26.67
2018-08-20T05:04:54.751Z,26.90
2018-08-20T05:05:25.943Z,26.98
2018-08-20T05:05:57.142Z,27.10
2018-08-20T05:06:28.299Z,27.14
2018-08-20T05:06:59.425Z,27.24
2018-08-20T05:07:30.561Z,27.33
2018-08-20T05:08:01.797Z,27.44
2018-08-20T05:08:32.986Z,27.43
2018-08-20T05:09:04.296Z,27.29
2018-08-20T05:09:35.497Z,27.29
2018-08-20T05:10:06.727Z,27.23
2018-08-20T05:10:37.914Z,27.23
2018-08-20T05:11:09.044Z,27.14
2018-08-20T05:11:40.221Z,26.99
2018-08-20T05:12:11.432Z,26.92
2018-08-20T05:12:42.601Z,26.88
2018-08-20T05:13:13.836Z,26.91
2018-08-20T05:13:45.016Z,27.07
2018-08-20T05:14:16.247Z,27.22
2018-08-20T05:14:47.498Z,27.31
2018-08-20T05:15:18.746Z,27.39
2018-08-20T05:15:49.919Z,27.53
2018-08-20T05:16:21.166Z,27.59
2018-08-20T05:16:52.350Z,27.79
2018-08-20T05:17:23.559Z,27.77
2018-08-20T05:17:54.679Z,27.83
2018-08-20T05:18:25.797Z,27.81
2018-08-20T05:18:57.028Z,27.79
2018-08-20T05:19:28.205Z,27.85
2018-08-20T05:19:59.450Z,27.96
2018-08-20T05:20:30.632Z,28.01
2018-08-20T05:21:01.877Z,28.03
2018-08-20T05:21:33.113Z,28.03
2018-08-20T05:22:04.245Z,28.00
2018-08-20T05:22:35.414Z,27.76
2018-08-20T05:23:06.557Z,27.80
2018-08-20T05:23:37.706Z,27.78
2018-08-20T05:24:08.832Z,27.81
2018-08-20T05:24:40.100Z,27.78
2018-08-20T05:25:11.235Z,27.82
2018-08-20T05:25:42.375Z,27.67
2018-08-20T05:26:13.483Z,27.67
2018-08-20T05:26:44.673Z,27.57
2018-08-20T05:27:15.802Z,27.56
2018-08-20T05:27:46.981Z,27.66
2018-08-20T05:28:18.111Z,27.65
2018-08-20T05:28:49.292Z,27.82
2018-08-20T05:29:20.501Z,27.87
2018-08-20T05:29:51.609Z,27.90
2018-08-20T05:30:22.804Z,27.87
2018-08-20T05:30:53.987Z,27.80
2018-08-20T05:31:25.144Z,27.80
2018-08-20T05:31:56.386Z,27.63
2018-08-20T05:32:27.529Z,27.76
2018-08-20T05:32:58.712Z,27.75
2018-08-20T05:33:29.835Z,27.78
2018-08-20T05:34:01.020Z,27.81
2018-08-20T05:34:32.171Z,27.90
2018-08-20T05:35:03.297Z,28.03
2018-08-20T05:35:34.509Z,27.90
2018-08-20T05:36:05.676Z,27.95
2018-08-20T05:36:36.864Z,27.96
2018-08-20T05:37:08.065Z,27.95
2018-08-20T05:37:39.203Z,27.97
2018-08-20T05:38:10.320Z,27.86
2018-08-20T05:38:41.450Z,27.80
2018-08-20T05:39:12.611Z,27.74
2018-08-20T05:39:43.740Z,27.78
2018-08-20T05:40:14.927Z,27.83
2018-08-20T05:40:46.193Z,27.90
2018-08-20T05:41:17.486Z,27.80
2018-08-20T05:41:48.607Z,27.77
2018-08-20T05:42:19.735Z,27.78
2018-08-20T05:42:50.905Z,27.73
2018-08-20T05:43:22.039Z,27.79
2018-08-20T05:43:53.220Z,27.79
2018-08-20T05:44:24.421Z,27.81
2018-08-20T05:44:55.653Z,27.83
2018-08-20T05:45:26.767Z,27.84
2018-08-20T05:45:57.950Z,27.87
2018-08-20T05:46:29.072Z,27.90
2018-08-20T05:47:00.241Z,27.87
2018-08-20T05:47:31.444Z,27.94
2018-08-20T05:48:02.660Z,27.90
2018-08-20T05:48:33.894Z,27.83
2018-08-20T05:49:05.108Z,27.83
2018-08-20T05:49:36.215Z,27.64
2018-08-20T05:50:07.336Z,27.76
2018-08-20T05:50:38.464Z,27.71
2018-08-20T05:51:09.688Z,27.73
2018-08-20T05:51:40.888Z,27.66
2018-08-20T05:52:12.088Z,27.68
2018-08-20T05:52:43.265Z,27.59
2018-08-20T05:53:14.407Z,27.55
2018-08-20T05:53:45.528Z,27.41
2018-08-20T05:54:16.756Z,27.36
2018-08-20T05:54:47.921Z,27.32
2018-08-20T05:55:19.120Z,27.04
2018-08-20T05:55:50.286Z,26.89
2018-08-20T05:56:21.489Z,26.89
2018-08-20T05:56:52.726Z,26.82
2018-08-20T05:57:23.895Z,26.72
2018-08-20T05:57:55.355Z,26.60
2018-08-20T05:58:26.544Z,26.61
2018-08-20T05:58:57.774Z,26.66
2018-08-20T05:59:28.902Z,26.70
2018-08-20T06:00:00.028Z,26.70
2018-08-20T06:00:31.184Z,26.68
2018-08-20T06:01:02.308Z,26.67
2018-08-20T06:01:33.424Z,26.70
2018-08-20T06:02:04.579Z,26.71
2018-08-20T06:02:35.707Z,26.76
2018-08-20T06:03:06.825Z,26.81
2018-08-20T06:03:37.993Z,26.78
2018-08-20T06:04:09.255Z,26.65
2018-08-20T06:04:40.442Z,26.61
2018-08-20T06:05:11.580Z,26.61
2018-08-20T06:05:42.742Z,26.69
2018-08-20T06:06:13.879Z,26.66
2018-08-20T06:06:45.060Z,26.59
2018-08-20T06:07:16.193Z,26.51
2018-08-20T06:07:47.416Z,26.52
2018-08-20T06:08:18.621Z,26.52
2018-08-20T06:08:49.759Z,26.61
2018-08-20T06:09:21.056Z,26.64
2018-08-20T06:09:52.257Z,26.61
2018-08-20T06:10:23.489Z,26.62
2018-08-20T06:10:54.665Z,26.64
2018-08-20T06:11:25.869Z,26.66
2018-08-20T06:11:57.000Z,26.64
2018-08-20T06:12:28.129Z,26.61
2018-08-20T06:12:59.309Z,26.54
2018-08-20T06:13:30.552Z,26.40
2018-08-20T06:14:01.765Z,26.41
2018-08-20T06:14:33.033Z,26.46
2018-08-20T06:15:04.343Z,26.47
2018-08-20T06:15:35.582Z,26.46
2018-08-20T06:16:06.725Z,26.42
2018-08-20T06:16:37.906Z,26.38
2018-08-20T06:17:09.077Z,26.34
2018-08-20T06:17:40.397Z,26.43
2018-08-20T06:18:11.876Z,26.39
2018-08-20T06:18:43.063Z,26.36
2018-08-20T06:19:14.236Z,26.21
2018-08-20T06:19:45.438Z,26.28
2018-08-20T06:20:16.680Z,26.28
2018-08-20T06:20:47.891Z,26.20
2018-08-20T06:21:19.499Z,26.23
2018-08-20T06:21:52.960Z,26.24
2018-08-20T06:22:24.136Z,26.27
2018-08-20T06:22:55.307Z,26.30
2018-08-20T06:23:27.285Z,26.32
2018-08-20T06:24:01.216Z,26.29
2018-08-20T06:24:32.441Z,26.39
2018-08-20T06:25:03.684Z,26.44
2018-08-20T06:25:34.752Z,26.45
2018-08-20T06:26:05.944Z,26.44
2018-08-20T06:26:37.065Z,26.46
2018-08-20T06:27:10.540Z,26.48
2018-08-20T06:27:41.700Z,26.43
2018-08-20T06:28:12.989Z,26.33
2018-08-20T06:28:44.275Z,26.29
2018-08-20T06:29:15.445Z,26.28
2018-08-20T06:29:46.638Z,26.31
2018-08-20T06:30:17.851Z,26.30
2018-08-20T06:30:49.025Z,26.35
2018-08-20T06:31:20.268Z,26.40
2018-08-20T06:31:51.513Z,26.49
2018-08-20T06:32:22.714Z,26.51
2018-08-20T06:32:53.891Z,26.59
2018-08-20T06:33:25.191Z,26.65
2018-08-20T06:33:56.532Z,26.71
2018-08-20T06:34:28.453Z,26.78
2018-08-20T06:35:00.257Z,26.82
2018-08-20T06:35:31.388Z,26.84
2018-08-20T06:36:02.624Z,26.85
2018-08-20T06:36:33.769Z,26.86
2018-08-20T06:37:04.972Z,26.88
2018-08-20T06:37:36.140Z,26.87
2018-08-20T06:38:07.257Z,26.88
2018-08-20T06:38:38.463Z,26.82
2018-08-20T06:39:09.702Z,26.83
2018-08-20T06:39:41.228Z,26.85
2018-08-20T06:40:12.395Z,26.87
2018-08-20T06:40:43.520Z,26.82
2018-08-20T06:41:14.775Z,26.81
2018-08-20T06:41:45.955Z,26.92